Time;durP1;ratioP1;P1;durP2;ratioP2;P2;SDS_P1;SDS_P2;PMS_P1;PMS_P2;Temp;Humidity;BMP_temperature;BMP_pressure;BME280_temperature;BME280_humidity;BME280_pressure;Samples;Min_cycle;Max_cycle;Signal;HPM_P1;HPM_P2
2022/09/03 00:01:13;;;;;;;;;12.00;11.00;;;;;;;;5078683;27;52306;-67
2022/09/03 00:03:58;;;;;;;;;11.00;11.00;;;;;;;;5090777;27;51563;-68
2022/09/03 00:06:30;;;;;;;;;11.67;10.33;;;;;;;;5083827;27;51168;-66
2022/09/03 00:09:12;;;;;;;;;10.67;10.00;;;;;;;;5088644;27;51316;-68
2022/09/03 00:11:53;;;;;;;;;10.00;10.00;;;;;;;;5093377;27;51969;-67
2022/09/03 00:14:19;;;;;;;;;11.00;11.00;;;;;;;;5086497;27;51190;-67
2022/09/03 00:16:56;;;;;;;;;9.33;8.67;;;;;;;;5093794;27;51182;-68
2022/09/03 00:19:25;;;;;;;;;11.67;10.67;;;;;;;;5089521;27;51361;-67
2022/09/03 00:22:03;;;;;;;;;10.00;9.33;;;;;;;;5095810;27;51529;-68
2022/09/03 00:24:32;;;;;;;;;9.00;8.33;;;;;;;;5083048;27;51173;-67
2022/09/03 00:27:00;;;;;;;;;10.00;10.00;;;;;;;;5079598;27;51141;-68
2022/09/03 00:29:34;;;;;;;;;9.00;9.00;;;;;;;;5074521;27;51328;-67
2022/09/03 00:32:03;;;;;;;;;10.33;9.67;;;;;;;;5085560;27;51237;-68
2022/09/03 00:34:31;;;;;;;;;8.00;8.00;;;;;;;;5089729;27;51231;-67
2022/09/03 00:36:56;;;;;;;;;10.00;9.00;;;;;;;;5100599;27;51199;-66
2022/09/03 00:39:24;;;;;;;;;10.67;10.67;;;;;;;;5086151;27;51785;-69
2022/09/03 00:42:06;;;;;;;;;10.00;9.00;;;;;;;;5087304;27;51188;-68
2022/09/03 00:44:31;;;;;;;;;9.00;9.00;;;;;;;;5093041;27;51195;-68
2022/09/03 00:47:10;;;;;;;;;9.00;9.00;;;;;;;;5094759;27;51165;-68
2022/09/03 00:49:38;;;;;;;;;9.00;9.00;;;;;;;;5088119;27;51672;-68
2022/09/03 00:52:03;;;;;;;;;11.67;9.67;;;;;;;;5077441;27;51107;-68
2022/09/03 00:54:39;;;;;;;;;8.00;8.00;;;;;;;;5081409;27;50930;-67
2022/09/03 00:57:24;;;;;;;;;8.33;8.33;;;;;;;;5093120;27;51083;-67
2022/09/03 00:59:57;;;;;;;;;9.67;9.33;;;;;;;;5083767;27;51313;-68
2022/09/03 01:02:39;;;;;;;;;9.00;8.67;;;;;;;;5088079;27;51336;-67
2022/09/03 01:05:07;;;;;;;;;9.00;9.00;;;;;;;;5081755;27;51186;-67
2022/09/03 01:07:33;;;;;;;;;8.00;8.00;;;;;;;;5090050;27;51212;-68
2022/09/03 01:10:01;;;;;;;;;9.67;9.67;;;;;;;;5077475;27;51210;-68
2022/09/03 01:12:33;;;;;;;;;9.00;9.00;;;;;;;;5074179;27;51113;-68
2022/09/03 01:15:12;;;;;;;;;9.33;8.00;;;;;;;;5082449;27;50905;-67
2022/09/03 01:17:57;;;;;;;;;8.67;8.67;;;;;;;;5085274;27;51201;-67
2022/09/03 01:20:41;;;;;;;;;8.00;7.67;;;;;;;;5083921;27;51068;-67
2022/09/03 01:23:23;;;;;;;;;9.67;9.67;;;;;;;;5083614;27;51806;-67
2022/09/03 01:26:07;;;;;;;;;10.00;10.00;;;;;;;;5084939;27;51020;-67
2022/09/03 01:28:55;;;;;;;;;7.00;7.00;;;;;;;;5074344;27;51283;-67
2022/09/03 01:31:25;;;;;;;;;8.67;8.67;;;;;;;;5072324;27;51249;-68
2022/09/03 01:34:10;;;;;;;;;11.33;9.33;;;;;;;;5087338;27;52317;-69
2022/09/03 01:36:41;;;;;;;;;9.00;9.00;;;;;;;;5075241;27;50885;-66
2022/09/03 01:39:09;;;;;;;;;7.00;7.00;;;;;;;;5080143;27;51218;-68
2022/09/03 01:42:15;;;;;;;;;9.00;8.67;;;;;;;;5079906;27;51613;-68
2022/09/03 01:45:00;;;;;;;;;7.00;7.00;;;;;;;;5077683;27;51837;-66
2022/09/03 01:47:48;;;;;;;;;10.00;9.00;;;;;;;;5091566;27;50962;-67
2022/09/03 01:50:32;;;;;;;;;11.00;8.00;;;;;;;;5082716;27;51135;-68
2022/09/03 01:53:01;;;;;;;;;9.00;9.00;;;;;;;;5090311;27;51324;-68
2022/09/03 01:55:46;;;;;;;;;8.00;7.00;;;;;;;;5080909;27;52323;-68
2022/09/03 01:58:20;;;;;;;;;7.33;7.33;;;;;;;;5090336;27;51387;-68
2022/09/03 02:00:50;;;;;;;;;7.33;7.33;;;;;;;;5082983;27;52540;-69
2022/09/03 02:03:16;;;;;;;;;6.67;6.67;;;;;;;;5073399;27;51132;-69
2022/09/03 02:05:42;;;;;;;;;7.33;7.33;;;;;;;;5066883;27;52198;-67
2022/09/03 02:08:09;;;;;;;;;8.00;8.00;;;;;;;;5090482;27;50880;-68
2022/09/03 02:10:40;;;;;;;;;7.33;7.33;;;;;;;;5087057;27;50993;-68
2022/09/03 02:13:16;;;;;;;;;7.33;7.33;;;;;;;;5091115;27;51050;-69
2022/09/03 02:15:44;;;;;;;;;8.67;8.00;;;;;;;;5088927;27;51706;-68
2022/09/03 02:18:13;;;;;;;;;8.00;7.67;;;;;;;;5082439;27;50978;-68
2022/09/03 02:20:39;;;;;;;;;10.67;10.00;;;;;;;;5082690;27;50981;-69
2022/09/03 02:23:04;;;;;;;;;9.00;8.67;;;;;;;;5077631;27;51416;-69
2022/09/03 02:25:36;;;;;;;;;10.00;10.00;;;;;;;;5082535;27;51146;-69
2022/09/03 02:28:02;;;;;;;;;7.00;7.00;;;;;;;;5083336;27;51216;-69
2022/09/03 02:30:27;;;;;;;;;8.67;8.67;;;;;;;;5092104;27;51106;-69
2022/09/03 02:32:53;;;;;;;;;9.33;9.33;;;;;;;;5079335;27;51098;-68
2022/09/03 02:35:18;;;;;;;;;7.33;7.33;;;;;;;;5076608;27;51169;-68
2022/09/03 02:37:43;;;;;;;;;7.00;6.00;;;;;;;;5082104;27;51945;-69
2022/09/03 02:40:09;;;;;;;;;5.00;5.00;;;;;;;;5094092;27;51293;-69
2022/09/03 02:42:35;;;;;;;;;8.67;8.33;;;;;;;;5083376;27;54440;-69
2022/09/03 02:45:07;;;;;;;;;10.33;9.67;;;;;;;;5092806;27;51710;-68
2022/09/03 02:47:34;;;;;;;;;9.00;9.00;;;;;;;;5078739;27;50980;-67
2022/09/03 02:49:59;;;;;;;;;11.67;11.67;;;;;;;;5071552;27;51293;-69
2022/09/03 02:52:25;;;;;;;;;11.33;9.67;;;;;;;;5083351;27;50882;-68
2022/09/03 02:54:50;;;;;;;;;8.00;8.00;;;;;;;;5089657;27;53047;-67
2022/09/03 02:57:15;;;;;;;;;11.00;10.00;;;;;;;;5087555;27;51476;-68
2022/09/03 02:59:43;;;;;;;;;11.00;11.00;;;;;;;;5084451;27;51070;-67
2022/09/03 03:02:08;;;;;;;;;9.33;9.00;;;;;;;;5082860;27;51220;-69
2022/09/03 03:04:34;;;;;;;;;10.00;10.00;;;;;;;;5087446;27;51931;-68
2022/09/03 03:06:59;;;;;;;;;9.67;9.00;;;;;;;;5096902;27;50939;-69
2022/09/03 03:09:24;;;;;;;;;9.33;9.33;;;;;;;;5078553;27;51108;-68
2022/09/03 03:11:50;;;;;;;;;10.33;10.33;;;;;;;;5085974;27;51159;-69
2022/09/03 03:14:16;;;;;;;;;10.00;10.00;;;;;;;;5086525;27;51980;-68
2022/09/03 03:16:41;;;;;;;;;12.00;10.33;;;;;;;;5077763;27;51163;-69
2022/09/03 03:19:07;;;;;;;;;10.00;10.00;;;;;;;;5073515;27;51532;-69
2022/09/03 03:21:32;;;;;;;;;12.33;11.33;;;;;;;;5075092;27;51056;-69
2022/09/03 03:23:57;;;;;;;;;13.00;12.00;;;;;;;;5076150;27;51906;-69
2022/09/03 03:26:23;;;;;;;;;11.67;11.33;;;;;;;;5077124;27;51051;-69
2022/09/03 03:28:48;;;;;;;;;10.67;10.67;;;;;;;;5071784;27;52411;-69
2022/09/03 03:31:18;;;;;;;;;15.00;15.00;;;;;;;;5075551;27;51346;-68
2022/09/03 03:33:43;;;;;;;;;13.33;13.00;;;;;;;;5082459;27;51971;-69
2022/09/03 03:36:10;;;;;;;;;10.33;10.33;;;;;;;;5074782;27;51094;-69
2022/09/03 03:38:36;;;;;;;;;14.00;13.33;;;;;;;;5074049;27;51210;-69
2022/09/03 03:41:07;;;;;;;;;12.33;12.33;;;;;;;;5082070;27;50995;-70
2022/09/03 03:43:33;;;;;;;;;11.67;11.00;;;;;;;;5072521;27;51400;-68
2022/09/03 03:45:58;;;;;;;;;14.67;14.00;;;;;;;;5083817;27;51224;-68
2022/09/03 03:48:24;;;;;;;;;13.67;13.33;;;;;;;;5084423;27;51258;-68
2022/09/03 03:50:49;;;;;;;;;15.00;13.00;;;;;;;;5086194;27;50854;-68
2022/09/03 03:53:14;;;;;;;;;18.00;15.00;;;;;;;;5080040;27;51953;-68
2022/09/03 03:55:40;;;;;;;;;14.67;13.33;;;;;;;;5085102;27;51205;-69
2022/09/03 03:58:06;;;;;;;;;16.00;14.00;;;;;;;;5088867;27;51178;-68
2022/09/03 04:00:32;;;;;;;;;16.33;13.00;;;;;;;;5078074;27;51451;-68
2022/09/03 04:02:58;;;;;;;;;13.00;12.33;;;;;;;;5071427;27;52929;-68
2022/09/03 04:05:23;;;;;;;;;11.67;10.00;;;;;;;;5077541;27;50962;-69
2022/09/03 04:07:48;;;;;;;;;14.00;14.00;;;;;;;;5082499;27;51212;-69
2022/09/03 04:10:14;;;;;;;;;11.67;10.00;;;;;;;;5091575;27;51088;-69
2022/09/03 04:12:39;;;;;;;;;15.00;14.00;;;;;;;;5072809;27;53194;-69
2022/09/03 04:15:05;;;;;;;;;15.00;14.33;;;;;;;;5071637;28;50999;-68
2022/09/03 04:17:30;;;;;;;;;13.67;12.67;;;;;;;;5075790;27;51195;-69
2022/09/03 04:19:56;;;;;;;;;15.00;12.67;;;;;;;;5087642;27;51338;-69
2022/09/03 04:22:21;;;;;;;;;11.33;11.33;;;;;;;;5079074;27;52640;-68
2022/09/03 04:24:46;;;;;;;;;14.33;14.33;;;;;;;;5071014;27;51240;-69
2022/09/03 04:27:11;;;;;;;;;12.33;12.00;;;;;;;;5086672;27;51082;-68
2022/09/03 04:29:37;;;;;;;;;12.50;12.25;;;;;;;;5092712;27;51358;-68
2022/09/03 04:34:46;;;;;;;;;13.33;13.00;;;;;;;;5087860;27;51089;-69
2022/09/03 04:37:11;;;;;;;;;14.00;13.33;;;;;;;;5093490;27;51115;-68
2022/09/03 04:39:36;;;;;;;;;13.33;12.67;;;;;;;;5093801;27;50917;-67
2022/09/03 04:42:02;;;;;;;;;15.33;15.33;;;;;;;;5083208;27;51197;-69
2022/09/03 04:44:27;;;;;;;;;15.33;14.67;;;;;;;;5100115;27;51157;-69
2022/09/03 04:46:52;;;;;;;;;21.75;20.50;;;;;;;;5089490;27;51126;-69
2022/09/03 04:49:18;;;;;;;;;13.00;12.33;;;;;;;;5080967;27;50955;-69
2022/09/03 04:51:43;;;;;;;;;14.33;13.33;;;;;;;;5071300;27;52041;-67
2022/09/03 04:54:09;;;;;;;;;12.33;12.33;;;;;;;;5082585;27;51252;-69
2022/09/03 04:56:35;;;;;;;;;14.00;13.33;;;;;;;;5088357;27;50968;-68
2022/09/03 04:59:05;;;;;;;;;13.33;13.00;;;;;;;;5075651;27;51175;-68
2022/09/03 05:01:31;;;;;;;;;13.33;13.33;;;;;;;;5079042;27;52880;-68
2022/09/03 05:03:57;;;;;;;;;15.33;15.33;;;;;;;;5077719;27;51750;-68
2022/09/03 05:06:24;;;;;;;;;14.33;13.00;;;;;;;;5085493;27;51101;-67
2022/09/03 05:08:50;;;;;;;;;13.33;11.00;;;;;;;;5098260;27;50929;-67
2022/09/03 05:11:15;;;;;;;;;15.33;14.67;;;;;;;;5078658;27;51812;-68
2022/09/03 05:13:41;;;;;;;;;13.00;12.33;;;;;;;;5084484;27;52921;-68
2022/09/03 05:16:08;;;;;;;;;13.33;11.00;;;;;;;;5076931;27;51087;-68
2022/09/03 05:18:37;;;;;;;;;10.67;10.67;;;;;;;;5076807;27;51223;-69
2022/09/03 05:21:03;;;;;;;;;21.00;17.50;;;;;;;;5073574;27;51913;-70
2022/09/03 05:23:32;;;;;;;;;12.33;12.33;;;;;;;;5080721;27;51179;-68
2022/09/03 05:25:58;;;;;;;;;13.67;12.67;;;;;;;;5077736;27;52342;-68
2022/09/03 05:28:28;;;;;;;;;14.00;12.33;;;;;;;;5079848;27;51235;-69
2022/09/03 05:30:57;;;;;;;;;13.67;13.33;;;;;;;;5084841;27;51250;-68
2022/09/03 05:33:23;;;;;;;;;12.67;11.33;;;;;;;;5078787;27;51032;-68
2022/09/03 05:35:48;;;;;;;;;12.00;11.67;;;;;;;;5077402;27;51091;-68
2022/09/03 05:38:16;;;;;;;;;14.33;14.00;;;;;;;;5085631;27;51619;-68
2022/09/03 05:40:42;;;;;;;;;13.33;11.33;;;;;;;;5083242;27;51278;-67
2022/09/03 05:43:07;;;;;;;;;12.67;12.33;;;;;;;;5087866;27;51022;-67
2022/09/03 05:45:32;;;;;;;;;12.67;12.67;;;;;;;;5090349;27;50969;-68
2022/09/03 05:47:58;;;;;;;;;13.67;12.67;;;;;;;;5077729;27;51305;-68
2022/09/03 05:50:24;;;;;;;;;15.67;15.00;;;;;;;;5079017;27;51007;-68
2022/09/03 05:52:49;;;;;;;;;12.33;12.00;;;;;;;;5079317;27;51014;-67
2022/09/03 05:55:14;;;;;;;;;13.67;12.67;;;;;;;;5087467;27;50976;-69
2022/09/03 05:57:40;;;;;;;;;14.00;13.00;;;;;;;;5073887;27;51035;-68
2022/09/03 06:00:05;;;;;;;;;13.67;12.67;;;;;;;;5079010;27;52585;-67
2022/09/03 06:02:31;;;;;;;;;14.67;14.00;;;;;;;;5075825;27;51178;-68
2022/09/03 06:04:56;;;;;;;;;12.33;12.33;;;;;;;;5086443;27;51246;-69
2022/09/03 06:07:21;;;;;;;;;16.00;15.00;;;;;;;;5080707;27;51307;-70
2022/09/03 06:09:47;;;;;;;;;13.67;13.33;;;;;;;;5085443;27;51158;-69
2022/09/03 06:12:12;;;;;;;;;13.33;12.67;;;;;;;;5084349;27;51207;-68
2022/09/03 06:14:37;;;;;;;;;13.33;12.33;;;;;;;;5082995;27;51072;-68
2022/09/03 06:17:02;;;;;;;;;17.00;17.00;;;;;;;;5086384;27;51420;-69
2022/09/03 06:19:27;;;;;;;;;14.00;14.00;;;;;;;;5080327;27;52052;-69
2022/09/03 06:21:54;;;;;;;;;13.67;13.33;;;;;;;;5080312;27;50988;-68
2022/09/03 06:24:22;;;;;;;;;12.33;12.33;;;;;;;;5073516;27;51209;-69
2022/09/03 06:26:47;;;;;;;;;14.33;14.00;;;;;;;;5076962;27;50877;-69
2022/09/03 06:29:13;;;;;;;;;17.00;16.67;;;;;;;;5077902;27;51782;-70
2022/09/03 06:31:38;;;;;;;;;18.25;18.00;;;;;;;;5080670;27;50911;-69
2022/09/03 06:34:04;;;;;;;;;16.33;15.33;;;;;;;;5083371;27;51211;-69
2022/09/03 06:36:30;;;;;;;;;17.00;17.00;;;;;;;;5080042;27;51125;-69
2022/09/03 06:38:57;;;;;;;;;15.67;15.67;;;;;;;;5090682;27;52174;-69
2022/09/03 06:41:26;;;;;;;;;15.67;15.33;;;;;;;;5087221;27;51066;-68
2022/09/03 06:43:53;;;;;;;;;17.25;17.00;;;;;;;;5078898;27;51157;-68
2022/09/03 06:46:20;;;;;;;;;23.00;22.50;;;;;;;;5073307;27;50903;-69
2022/09/03 06:48:46;;;;;;;;;17.33;17.33;;;;;;;;5073000;27;53979;-68
2022/09/03 06:51:16;;;;;;;;;15.33;15.33;;;;;;;;5085208;27;50985;-69
2022/09/03 06:53:42;;;;;;;;;17.75;17.00;;;;;;;;5089671;27;51251;-62
2022/09/03 06:56:09;;;;;;;;;13.33;11.00;;;;;;;;5075150;27;51409;-64
2022/09/03 06:58:55;;;;;;;;;33.50;30.75;;;;;;;;5084462;27;52594;-61
2022/09/03 07:01:25;;;;;;;;;13.00;13.00;;;;;;;;5074559;27;51163;-61
2022/09/03 07:03:55;;;;;;;;;15.67;15.33;;;;;;;;5082259;27;51185;-63
2022/09/03 07:06:21;;;;;;;;;13.00;12.67;;;;;;;;5086186;27;53678;-61
2022/09/03 07:08:46;;;;;;;;;11.00;10.33;;;;;;;;5075060;27;51992;-60
2022/09/03 07:11:13;;;;;;;;;10.67;10.67;;;;;;;;5070750;27;51133;-62
2022/09/03 07:13:40;;;;;;;;;11.00;10.00;;;;;;;;5074110;27;51083;-61
2022/09/03 07:16:06;;;;;;;;;11.33;10.67;;;;;;;;5091866;27;51278;-61
2022/09/03 07:18:32;;;;;;;;;13.67;13.33;;;;;;;;5082670;27;52254;-60
2022/09/03 07:21:07;;;;;;;;;14.00;14.00;;;;;;;;5074342;27;50871;-60
2022/09/03 07:23:33;;;;;;;;;12.00;12.00;;;;;;;;5079998;27;51142;-60
2022/09/03 07:26:00;;;;;;;;;11.67;11.00;;;;;;;;5080752;27;50870;-63
2022/09/03 07:28:26;;;;;;;;;12.00;12.00;;;;;;;;5072412;27;51131;-62
2022/09/03 07:30:52;;;;;;;;;13.33;12.67;;;;;;;;5080910;27;51088;-61
2022/09/03 07:33:18;;;;;;;;;12.67;11.67;;;;;;;;5081913;27;51026;-61
2022/09/03 07:35:43;;;;;;;;;9.00;9.00;;;;;;;;5074991;27;50940;-61
2022/09/03 07:38:09;;;;;;;;;15.67;15.67;;;;;;;;5078404;27;51827;-62
2022/09/03 07:40:35;;;;;;;;;20.50;20.00;;;;;;;;5075956;27;50966;-64
2022/09/03 07:43:03;;;;;;;;;10.00;10.00;;;;;;;;5085143;27;51105;-62
2022/09/03 07:45:28;;;;;;;;;11.33;10.67;;;;;;;;5080338;27;51101;-63
2022/09/03 07:47:54;;;;;;;;;11.67;11.67;;;;;;;;5072212;27;51056;-62
2022/09/03 07:50:19;;;;;;;;;10.00;10.00;;;;;;;;5075474;27;50961;-62
2022/09/03 07:52:44;;;;;;;;;13.00;12.33;;;;;;;;5082289;27;50978;-62
2022/09/03 07:55:10;;;;;;;;;13.33;12.67;;;;;;;;5080843;27;51949;-63
2022/09/03 07:57:35;;;;;;;;;12.00;11.33;;;;;;;;5078880;27;52047;-62
2022/09/03 08:00:00;;;;;;;;;12.00;12.00;;;;;;;;5083381;27;51010;-62
2022/09/03 08:02:25;;;;;;;;;8.00;8.00;;;;;;;;5090802;27;51831;-63
2022/09/03 08:04:51;;;;;;;;;9.67;7.67;;;;;;;;5094773;27;51310;-62
2022/09/03 08:07:16;;;;;;;;;8.67;8.67;;;;;;;;5084329;27;51432;-62
2022/09/03 08:09:42;;;;;;;;;12.33;12.33;;;;;;;;5096045;27;51027;-62
2022/09/03 08:12:07;;;;;;;;;7.67;7.67;;;;;;;;5089194;27;51457;-63
2022/09/03 08:14:32;;;;;;;;;13.33;13.33;;;;;;;;5083847;27;51121;-63
2022/09/03 08:16:58;;;;;;;;;9.00;9.00;;;;;;;;5092429;27;51166;-63
2022/09/03 08:19:24;;;;;;;;;7.33;6.67;;;;;;;;5086962;27;51013;-62
2022/09/03 08:21:50;;;;;;;;;60.00;50.50;;;;;;;;5086055;27;51131;-64
2022/09/03 08:24:16;;;;;;;;;8.33;8.33;;;;;;;;5089022;27;51668;-62
2022/09/03 08:26:41;;;;;;;;;8.67;8.67;;;;;;;;5084604;27;51158;-62
2022/09/03 08:29:07;;;;;;;;;6.00;6.00;;;;;;;;5089615;27;51239;-63
2022/09/03 08:31:33;;;;;;;;;7.67;7.67;;;;;;;;5091767;27;50929;-63
2022/09/03 08:34:02;;;;;;;;;8.33;8.33;;;;;;;;5083515;27;51179;-62
2022/09/03 08:36:30;;;;;;;;;9.33;8.00;;;;;;;;5074588;27;51093;-64
2022/09/03 08:38:57;;;;;;;;;8.00;8.00;;;;;;;;5073404;27;50936;-62
2022/09/03 08:41:42;;;;;;;;;6.33;6.33;;;;;;;;5073932;28;51015;-63
2022/09/03 08:44:13;;;;;;;;;7.00;6.33;;;;;;;;5077269;27;51406;-62
2022/09/03 08:47:02;;;;;;;;;9.00;9.00;;;;;;;;5088530;27;52120;-63
2022/09/03 08:49:59;;;;;;;;;6.00;6.00;;;;;;;;5086779;27;51194;-62
2022/09/03 08:52:37;;;;;;;;;7.00;6.00;;;;;;;;5077942;27;50960;-62
2022/09/03 08:55:21;;;;;;;;;5.67;5.67;;;;;;;;5085827;27;51198;-57
2022/09/03 08:57:48;;;;;;;;;6.33;6.33;;;;;;;;5084670;27;51208;-59
2022/09/03 09:00:14;;;;;;;;;6.33;5.67;;;;;;;;5077937;27;51091;-65
2022/09/03 09:02:39;;;;;;;;;7.67;7.00;;;;;;;;5081368;27;51072;-64
2022/09/03 09:05:25;;;;;;;;;6.00;5.33;;;;;;;;5078614;27;51395;-64
2022/09/03 09:07:52;;;;;;;;;6.00;5.33;;;;;;;;5073632;27;53393;-65
2022/09/03 09:10:17;;;;;;;;;5.33;5.00;;;;;;;;5081813;27;51072;-65
2022/09/03 09:13:01;;;;;;;;;3.33;3.33;;;;;;;;5076954;27;51026;-64
2022/09/03 09:15:29;;;;;;;;;5.00;5.00;;;;;;;;5076448;27;51078;-64
2022/09/03 09:18:13;;;;;;;;;5.00;4.33;;;;;;;;5079337;27;52137;-63
2022/09/03 09:21:01;;;;;;;;;4.00;4.00;;;;;;;;5083258;27;51117;-64
2022/09/03 09:23:47;;;;;;;;;5.67;5.67;;;;;;;;5079333;27;51317;-64
2022/09/03 09:26:16;;;;;;;;;6.00;6.00;;;;;;;;5076680;27;51179;-64
2022/09/03 09:28:44;;;;;;;;;6.67;6.67;;;;;;;;5075338;27;51917;-64
2022/09/03 09:31:14;;;;;;;;;5.33;5.33;;;;;;;;5073812;27;50928;-63
2022/09/03 09:33:39;;;;;;;;;7.00;6.33;;;;;;;;5089744;27;51237;-64
2022/09/03 09:36:07;;;;;;;;;6.00;6.00;;;;;;;;5094011;27;51020;-63
2022/09/03 09:38:35;;;;;;;;;5.33;5.00;;;;;;;;5081550;27;52348;-64
2022/09/03 09:41:09;;;;;;;;;4.00;4.00;;;;;;;;5073478;27;51079;-62
2022/09/03 09:43:34;;;;;;;;;4.67;4.67;;;;;;;;5073860;27;50840;-63
2022/09/03 09:46:05;;;;;;;;;5.00;4.33;;;;;;;;5074079;27;50836;-62
2022/09/03 09:48:36;;;;;;;;;6.00;5.00;;;;;;;;5074755;27;53936;-62
2022/09/03 09:51:30;;;;;;;;;7.00;6.00;;;;;;;;5073382;27;51068;-64
2022/09/03 09:54:03;;;;;;;;;6.00;6.00;;;;;;;;5075247;27;51095;-63
2022/09/03 09:56:29;;;;;;;;;5.00;5.00;;;;;;;;5071725;27;51260;-65
2022/09/03 09:59:03;;;;;;;;;6.33;6.33;;;;;;;;5075083;27;51267;-66
2022/09/03 10:01:30;;;;;;;;;6.67;6.67;;;;;;;;5074991;27;50918;-67
2022/09/03 10:03:57;;;;;;;;;4.67;4.67;;;;;;;;5074996;27;51079;-64
2022/09/03 10:09:11;;;;;;;;;7.33;7.00;;;;;;;;5077092;27;51414;-60
2022/09/03 10:11:39;;;;;;;;;5.67;5.67;;;;;;;;5072053;28;51032;-61
2022/09/03 10:14:12;;;;;;;;;7.00;7.00;;;;;;;;5073557;27;50862;-61
2022/09/03 10:16:40;;;;;;;;;7.00;5.00;;;;;;;;5083287;27;51441;-60
2022/09/03 10:19:08;;;;;;;;;6.00;6.00;;;;;;;;5071717;27;52226;-61
2022/09/03 10:21:33;;;;;;;;;6.00;6.00;;;;;;;;5087161;27;51087;-61
2022/09/03 10:23:58;;;;;;;;;3.00;3.00;;;;;;;;5093143;27;51146;-61
2022/09/03 10:26:30;;;;;;;;;8.00;8.00;;;;;;;;5076847;27;51340;-59
2022/09/03 10:28:57;;;;;;;;;6.00;6.00;;;;;;;;5089433;27;52146;-57
2022/09/03 10:31:35;;;;;;;;;6.00;6.00;;;;;;;;5089459;27;51103;-54
2022/09/03 10:34:19;;;;;;;;;6.00;5.00;;;;;;;;5093765;27;51151;-58
2022/09/03 10:36:58;;;;;;;;;6.00;6.00;;;;;;;;5094532;27;52153;-56
2022/09/03 10:39:24;;;;;;;;;6.67;6.67;;;;;;;;5086011;27;53092;-57
2022/09/03 10:42:01;;;;;;;;;7.00;7.00;;;;;;;;5092148;27;51056;-65
2022/09/03 10:44:34;;;;;;;;;9.00;6.33;;;;;;;;5093296;27;51072;-67
2022/09/03 10:47:17;;;;;;;;;6.00;6.00;;;;;;;;5092938;27;50850;-67
2022/09/03 10:49:49;;;;;;;;;5.00;5.00;;;;;;;;5071039;27;53770;-67
2022/09/03 10:52:17;;;;;;;;;5.00;4.00;;;;;;;;5075033;27;51028;-68
2022/09/03 10:54:48;;;;;;;;;0.00;0.00;;;;;;;;5073924;27;50886;-69
2022/09/03 10:57:34;;;;;;;;;3.33;3.33;;;;;;;;5071263;27;51045;-67
2022/09/03 11:00:05;;;;;;;;;4.33;4.33;;;;;;;;5077544;27;51976;-66
2022/09/03 11:02:33;;;;;;;;;4.33;4.33;;;;;;;;5074419;27;51054;-68
2022/09/03 11:05:07;;;;;;;;;6.00;5.67;;;;;;;;5088678;27;51332;-65
2022/09/03 11:07:48;;;;;;;;;6.67;6.00;;;;;;;;5071500;27;51240;-66
2022/09/03 11:10:25;;;;;;;;;6.67;5.33;;;;;;;;5078036;27;51976;-64
2022/09/03 11:13:07;;;;;;;;;6.33;6.00;;;;;;;;5081410;27;51207;-68
2022/09/03 11:15:42;;;;;;;;;4.33;4.33;;;;;;;;5078568;27;51076;-67
2022/09/03 11:18:14;;;;;;;;;6.00;6.00;;;;;;;;5071425;27;51025;-68
2022/09/03 11:20:41;;;;;;;;;4.33;4.33;;;;;;;;5089901;27;54033;-66
2022/09/03 11:23:14;;;;;;;;;7.33;6.33;;;;;;;;5072678;27;51168;-66
2022/09/03 11:25:42;;;;;;;;;5.33;5.33;;;;;;;;5077085;27;51076;-67
2022/09/03 11:28:18;;;;;;;;;5.67;5.67;;;;;;;;5086669;27;51382;-66
2022/09/03 11:30:43;;;;;;;;;8.33;8.33;;;;;;;;5091972;27;52059;-65
2022/09/03 11:33:10;;;;;;;;;5.00;4.67;;;;;;;;5077823;27;51152;-62
2022/09/03 11:35:35;;;;;;;;;8.00;7.33;;;;;;;;5077421;27;51252;-62
2022/09/03 11:38:15;;;;;;;;;3.67;3.67;;;;;;;;5078950;27;51232;-62
2022/09/03 11:41:01;;;;;;;;;5.00;4.67;;;;;;;;5078340;27;51817;-64
2022/09/03 11:43:28;;;;;;;;;5.00;5.00;;;;;;;;5080693;27;50885;-63
2022/09/03 11:46:11;;;;;;;;;4.00;4.00;;;;;;;;5085089;27;51166;-62
2022/09/03 11:48:42;;;;;;;;;3.67;2.67;;;;;;;;5094486;27;50940;-62
2022/09/03 11:51:20;;;;;;;;;4.00;3.00;;;;;;;;5095277;27;52169;-62
2022/09/03 11:54:04;;;;;;;;;4.00;4.00;;;;;;;;5077889;27;51087;-62
2022/09/03 11:56:30;;;;;;;;;5.00;5.00;;;;;;;;5074126;27;51192;-61
2022/09/03 11:59:14;;;;;;;;;6.00;6.00;;;;;;;;5073625;28;51533;-60
2022/09/03 12:01:43;;;;;;;;;6.33;5.00;;;;;;;;5074727;27;51739;-62
2022/09/03 12:04:12;;;;;;;;;3.00;2.00;;;;;;;;5090489;27;51084;-60
2022/09/03 12:06:54;;;;;;;;;4.00;4.00;;;;;;;;5094776;27;51219;-60
2022/09/03 12:09:20;;;;;;;;;4.67;4.67;;;;;;;;5095749;27;50887;-61
2022/09/03 12:12:04;;;;;;;;;4.33;4.33;;;;;;;;5095379;27;51407;-61
2022/09/03 12:14:35;;;;;;;;;6.33;6.00;;;;;;;;5096107;27;50970;-60
2022/09/03 12:17:14;;;;;;;;;5.33;5.33;;;;;;;;5090738;27;51007;-60
2022/09/03 12:19:44;;;;;;;;;6.67;6.00;;;;;;;;5087723;27;51319;-62
2022/09/03 12:22:13;;;;;;;;;4.33;4.00;;;;;;;;5090050;27;52233;-61
2022/09/03 12:24:41;;;;;;;;;0.00;0.00;;;;;;;;5073464;27;51045;-61
2022/09/03 12:27:08;;;;;;;;;4.00;4.00;;;;;;;;5083122;27;51016;-60
2022/09/03 12:29:33;;;;;;;;;3.00;3.00;;;;;;;;5080983;27;51130;-61
2022/09/03 12:32:10;;;;;;;;;5.00;4.67;;;;;;;;5074388;27;51180;-60
2022/09/03 12:34:35;;;;;;;;;3.00;2.67;;;;;;;;5076350;27;51086;-60
2022/09/03 12:37:01;;;;;;;;;2.33;2.33;;;;;;;;5095216;27;51369;-60
2022/09/03 12:39:27;;;;;;;;;2.00;2.00;;;;;;;;5095552;27;51356;-60
2022/09/03 12:42:00;;;;;;;;;0.67;0.67;;;;;;;;5095484;27;51329;-62
2022/09/03 12:44:31;;;;;;;;;1.67;1.67;;;;;;;;5094664;27;51114;-60
2022/09/03 12:47:04;;;;;;;;;2.00;2.00;;;;;;;;5094295;27;50973;-59
2022/09/03 12:49:40;;;;;;;;;6.00;5.00;;;;;;;;5092917;27;51291;-60
2022/09/03 12:52:10;;;;;;;;;2.33;2.33;;;;;;;;5093791;27;51989;-62
2022/09/03 12:54:39;;;;;;;;;1.00;1.00;;;;;;;;5074276;27;51121;-60
2022/09/03 12:57:04;;;;;;;;;7.67;7.33;;;;;;;;5074037;27;51088;-60
2022/09/03 12:59:31;;;;;;;;;2.00;2.00;;;;;;;;5074326;27;51016;-61
2022/09/03 13:02:00;;;;;;;;;3.33;3.33;;;;;;;;5075206;27;52073;-61
2022/09/03 13:04:32;;;;;;;;;2.33;2.33;;;;;;;;5074455;27;51009;-61
2022/09/03 13:07:02;;;;;;;;;1.67;1.00;;;;;;;;5087851;27;51098;-61
2022/09/03 13:09:31;;;;;;;;;2.67;1.00;;;;;;;;5094559;27;51179;-60
2022/09/03 13:11:57;;;;;;;;;4.67;4.00;;;;;;;;5093426;27;51975;-61
2022/09/03 13:14:24;;;;;;;;;2.00;1.00;;;;;;;;5094060;27;51034;-61
2022/09/03 13:16:53;;;;;;;;;0.33;0.33;;;;;;;;5089955;27;51218;-62
2022/09/03 13:19:27;;;;;;;;;1.67;1.67;;;;;;;;5083461;27;50814;-60
2022/09/03 13:22:01;;;;;;;;;205.75;187.75;;;;;;;;5077254;27;52142;-61
2022/09/03 13:24:35;;;;;;;;;2.00;2.00;;;;;;;;5093140;27;51091;-61
2022/09/03 13:27:10;;;;;;;;;2.00;1.00;;;;;;;;5093792;27;51058;-61
2022/09/03 13:29:35;;;;;;;;;1.00;0.00;;;;;;;;5093965;27;51209;-61
2022/09/03 13:32:33;;;;;;;;;1.00;1.00;;;;;;;;5093713;27;51729;-63
2022/09/03 13:35:09;;;;;;;;;0.00;0.00;;;;;;;;5062227;27;51314;-62
2022/09/03 13:37:37;;;;;;;;;3.00;1.67;;;;;;;;5073306;27;50937;-61
2022/09/03 13:40:23;;;;;;;;;1.00;0.33;;;;;;;;5092022;27;51266;-61
2022/09/03 13:42:57;;;;;;;;;1.00;1.00;;;;;;;;5067915;27;54206;-61
2022/09/03 13:45:35;;;;;;;;;0.00;0.00;;;;;;;;5073172;27;50920;-62
2022/09/03 13:51:05;;;;;;;;;1.00;1.00;;;;;;;;5073115;28;51035;-61
2022/09/03 13:53:34;;;;;;;;;1.67;1.00;;;;;;;;5073231;27;52970;-62
2022/09/03 13:56:05;;;;;;;;;1.33;1.33;;;;;;;;5088757;27;50924;-61
2022/09/03 13:58:41;;;;;;;;;2.00;1.00;;;;;;;;5087739;27;51193;-61
2022/09/03 14:01:14;;;;;;;;;0.33;0.33;;;;;;;;5093180;27;51150;-61
2022/09/03 14:03:43;;;;;;;;;1.33;1.00;;;;;;;;5072166;27;51002;-62
2022/09/03 14:06:27;;;;;;;;;1.00;1.00;;;;;;;;5086167;27;51121;-61
2022/09/03 14:08:58;;;;;;;;;2.67;2.67;;;;;;;;5072750;27;50848;-61
2022/09/03 14:11:26;;;;;;;;;2.00;2.00;;;;;;;;5073792;27;51108;-62
2022/09/03 14:14:10;;;;;;;;;3.00;3.00;;;;;;;;5091744;27;53262;-61
2022/09/03 14:16:54;;;;;;;;;2.00;2.00;;;;;;;;5086629;27;51040;-62
2022/09/03 14:19:31;;;;;;;;;2.33;2.00;;;;;;;;5073115;27;51521;-60
2022/09/03 14:22:04;;;;;;;;;2.00;2.00;;;;;;;;5073714;27;51337;-62
2022/09/03 14:24:47;;;;;;;;;3.00;3.00;;;;;;;;5073100;27;53188;-62
2022/09/03 14:27:12;;;;;;;;;4.67;4.67;;;;;;;;5087671;27;51032;-62
2022/09/03 14:29:48;;;;;;;;;4.00;3.00;;;;;;;;5079688;27;51244;-62
2022/09/03 14:32:32;;;;;;;;;2.00;2.00;;;;;;;;5093281;27;51215;-61
2022/09/03 14:34:57;;;;;;;;;2.67;2.33;;;;;;;;5091952;27;53317;-61
2022/09/03 14:37:33;;;;;;;;;2.00;2.00;;;;;;;;5093636;27;50960;-61
2022/09/03 14:40:05;;;;;;;;;1.67;1.33;;;;;;;;5094462;27;51040;-62
2022/09/03 14:42:35;;;;;;;;;3.33;3.00;;;;;;;;5093238;27;51300;-62
2022/09/03 14:45:12;;;;;;;;;4.67;3.33;;;;;;;;5087202;27;51891;-61
2022/09/03 14:47:47;;;;;;;;;2.00;2.00;;;;;;;;5093021;27;50996;-61
2022/09/03 14:50:27;;;;;;;;;3.67;3.00;;;;;;;;5093513;27;51254;-61
2022/09/03 14:52:59;;;;;;;;;2.67;2.67;;;;;;;;5091978;27;51298;-61
2022/09/03 14:55:30;;;;;;;;;3.00;2.67;;;;;;;;5072629;27;52028;-61
2022/09/03 14:58:08;;;;;;;;;3.00;3.00;;;;;;;;5072574;27;51066;-62
2022/09/03 15:00:46;;;;;;;;;18.50;18.25;;;;;;;;5085139;27;51155;-62